createdAt,value
2019-03-24T00:02:14.540Z,57.38
2019-03-24T00:04:44.127Z,56.96
2019-03-24T00:07:18.883Z,58.70
2019-03-24T00:09:50.695Z,59.34
2019-03-24T00:12:20.651Z,58.96
2019-03-24T00:14:57.631Z,57.98
2019-03-24T00:17:29.917Z,58.40
2019-03-24T00:20:00.932Z,57.92
2019-03-24T00:22:36.025Z,58.35
2019-03-24T00:25:09.709Z,59.24
2019-03-24T00:27:42.474Z,60.49
2019-03-24T00:30:16.452Z,59.11
2019-03-24T00:32:47.827Z,58.45
2019-03-24T00:35:22.416Z,59.22
2019-03-24T00:37:58.830Z,58.90
2019-03-24T00:40:28.468Z,58.78
2019-03-24T00:42:58.293Z,59.14
2019-03-24T00:45:36.703Z,59.19
2019-03-24T00:48:02.133Z,58.78
2019-03-24T00:50:31.737Z,59.12
2019-03-24T00:53:04.974Z,59.08
2019-03-24T00:55:36.365Z,58.45
2019-03-24T00:58:15.341Z,58.03
2019-03-24T01:00:46.609Z,58.23
2019-03-24T01:03:18.174Z,57.89
2019-03-24T01:06:01.772Z,58.95
2019-03-24T01:08:33.689Z,58.35
2019-03-24T01:11:03.309Z,57.80
2019-03-24T01:13:36.093Z,57.28
2019-03-24T01:16:10.825Z,57.80
2019-03-24T01:18:40.481Z,59.30
2019-03-24T01:21:10.088Z,59.54
2019-03-24T01:23:41.157Z,59.56
2019-03-24T01:26:14.278Z,60.05
2019-03-24T01:28:46.338Z,61.86
2019-03-24T01:31:17.324Z,61.69
2019-03-24T01:33:50.622Z,62.28
2019-03-24T01:36:20.622Z,63.19
2019-03-24T01:38:51.402Z,62.85
2019-03-24T01:41:20.987Z,61.89
2019-03-24T01:43:50.607Z,61.26
2019-03-24T01:46:22.082Z,62.09
2019-03-24T01:48:51.758Z,63.30
2019-03-24T01:51:24.711Z,63.12
2019-03-24T01:53:54.327Z,63.94
2019-03-24T01:56:24.022Z,64.34
2019-03-24T01:58:55.020Z,63.12
2019-03-24T02:01:27.986Z,64.44
2019-03-24T02:03:57.566Z,64.39
2019-03-24T02:06:27.203Z,63.47
2019-03-24T02:08:59.611Z,63.49
2019-03-24T02:11:30.316Z,63.97
2019-03-24T02:14:05.751Z,64.08
2019-03-24T02:16:35.497Z,64.27
2019-03-24T02:19:05.246Z,63.11
2019-03-24T02:21:37.902Z,63.59
2019-03-24T02:24:07.874Z,63.72
2019-03-24T02:26:43.730Z,62.24
2019-03-24T02:29:17.704Z,62.97
2019-03-24T02:31:47.321Z,65.21
2019-03-24T02:34:17.009Z,65.68
2019-03-24T02:36:47.046Z,65.30
2019-03-24T02:39:21.090Z,65.87
2019-03-24T02:42:06.746Z,63.02
2019-03-24T02:44:37.653Z,63.49
2019-03-24T02:47:10.225Z,64.56
2019-03-24T02:49:43.024Z,63.28
2019-03-24T02:52:12.631Z,63.90
2019-03-24T02:54:42.581Z,61.93
2019-03-24T02:57:12.205Z,61.85
2019-03-24T02:59:42.883Z,61.98
2019-03-24T03:02:15.279Z,62.59
2019-03-24T03:04:47.730Z,62.52
2019-03-24T03:07:18.716Z,60.51
2019-03-24T03:09:48.659Z,58.97
2019-03-24T03:12:18.254Z,60.64
2019-03-24T03:14:47.928Z,60.15
2019-03-24T03:17:20.004Z,59.52
2019-03-24T03:19:53.806Z,61.20
2019-03-24T03:22:26.777Z,60.90
2019-03-24T03:24:56.364Z,61.14
2019-03-24T03:27:35.022Z,60.26
2019-03-24T03:30:06.192Z,61.22
2019-03-24T03:32:37.855Z,60.12
2019-03-24T03:35:10.389Z,59.89
2019-03-24T03:37:41.926Z,59.04
2019-03-24T03:40:11.968Z,59.33
2019-03-24T03:42:41.612Z,58.76
2019-03-24T03:45:13.433Z,60.04
2019-03-24T03:47:43.088Z,60.60
2019-03-24T03:50:16.501Z,59.41
2019-03-24T03:52:49.259Z,59.35
2019-03-24T03:55:18.971Z,57.98
2019-03-24T03:57:50.850Z,58.38
2019-03-24T04:00:28.698Z,59.29
2019-03-24T04:02:58.307Z,60.37
2019-03-24T04:05:28.025Z,58.59
2019-03-24T04:07:58.535Z,59.02
2019-03-24T04:10:31.751Z,59.11
2019-03-24T04:13:01.359Z,60.31
2019-03-24T04:15:31.363Z,60.00
2019-03-24T04:18:03.485Z,61.69
2019-03-24T04:20:33.238Z,61.28
2019-03-24T04:23:02.940Z,62.59
2019-03-24T04:25:35.616Z,63.08
2019-03-24T04:28:07.628Z,63.51
2019-03-24T04:30:37.223Z,65.33
2019-03-24T04:33:06.811Z,65.05
2019-03-24T04:35:39.632Z,65.67
2019-03-24T04:38:13.471Z,64.41
2019-03-24T04:40:46.377Z,63.97
2019-03-24T04:43:20.490Z,65.29
2019-03-24T04:45:53.223Z,63.86
2019-03-24T04:48:28.577Z,64.13
2019-03-24T04:50:59.725Z,65.93
2019-03-24T04:53:34.784Z,64.28
2019-03-24T04:56:04.642Z,64.32
2019-03-24T04:58:37.462Z,63.81
2019-03-24T05:01:12.345Z,65.06
2019-03-24T05:03:41.961Z,66.37
2019-03-24T05:06:11.898Z,66.88
2019-03-24T05:08:44.802Z,66.86
2019-03-24T05:11:21.818Z,67.17
2019-03-24T05:13:52.939Z,67.13
2019-03-24T05:16:22.943Z,65.67
2019-03-24T05:18:52.733Z,65.34
2019-03-24T05:21:26.477Z,66.13
2019-03-24T05:23:56.086Z,67.50
2019-03-24T05:26:25.683Z,68.18
2019-03-24T05:29:01.087Z,69.85
2019-03-24T05:31:31.781Z,69.66
2019-03-24T05:34:01.364Z,70.57
2019-03-24T05:36:32.824Z,70.21
2019-03-24T05:39:07.196Z,70.95
2019-03-24T05:41:39.544Z,70.23
2019-03-24T05:44:10.950Z,70.99
2019-03-24T05:46:43.151Z,71.01
2019-03-24T05:49:12.737Z,71.64
2019-03-24T05:51:42.709Z,72.04
2019-03-24T05:54:12.289Z,71.13
2019-03-24T05:56:41.958Z,70.45
2019-03-24T05:59:12.657Z,71.13
2019-03-24T06:01:43.309Z,71.23
2019-03-24T06:04:21.982Z,70.22
2019-03-24T06:06:51.588Z,69.97
2019-03-24T06:09:21.274Z,69.75
2019-03-24T06:11:53.016Z,69.47
2019-03-24T06:14:22.650Z,67.02
2019-03-24T06:16:52.362Z,65.32
2019-03-24T06:19:21.946Z,65.11
2019-03-24T06:21:52.645Z,65.18
2019-03-24T06:24:27.748Z,66.11
2019-03-24T06:27:00.673Z,67.45
2019-03-24T06:29:30.735Z,69.24
2019-03-24T06:32:02.852Z,69.99
2019-03-24T06:34:35.865Z,69.88
2019-03-24T06:37:07.317Z,67.60
2019-03-24T06:39:36.982Z,67.56
2019-03-24T06:42:06.976Z,67.56
2019-03-24T06:44:38.643Z,67.71
2019-03-24T06:47:11.249Z,65.50
2019-03-24T06:49:40.990Z,65.52
2019-03-24T06:52:14.741Z,65.00
2019-03-24T06:54:44.687Z,62.82
2019-03-24T06:57:22.328Z,61.25
2019-03-24T06:59:54.529Z,61.96
2019-03-24T07:02:26.775Z,60.75
2019-03-24T07:04:57.534Z,60.13
2019-03-24T07:07:27.169Z,59.25
2019-03-24T07:09:57.166Z,59.01
2019-03-24T07:12:32.961Z,59.35
2019-03-24T07:15:03.749Z,58.75
2019-03-24T07:17:33.431Z,58.24
2019-03-24T07:20:03.016Z,58.12
2019-03-24T07:22:34.391Z,58.08
2019-03-24T07:25:05.617Z,57.86
2019-03-24T07:27:38.214Z,58.03
2019-03-24T07:30:10.423Z,58.35
2019-03-24T07:32:42.371Z,57.51
2019-03-24T07:35:12.426Z,59.16
2019-03-24T07:37:44.997Z,58.89
2019-03-24T07:40:16.341Z,58.06
2019-03-24T07:42:53.129Z,57.40
2019-03-24T07:45:24.572Z,57.78
2019-03-24T07:47:56.195Z,57.51
2019-03-24T07:50:26.112Z,57.43
2019-03-24T07:52:55.859Z,58.42
2019-03-24T07:55:26.871Z,58.09
2019-03-24T07:57:56.695Z,58.29
2019-03-24T08:00:39.538Z,59.81
2019-03-24T08:03:10.442Z,59.43
2019-03-24T08:05:46.019Z,59.25
2019-03-24T08:08:15.900Z,59.79
2019-03-24T08:10:45.481Z,59.39
2019-03-24T08:13:17.697Z,58.99
2019-03-24T08:15:47.410Z,59.27
2019-03-24T08:18:17.191Z,59.64
2019-03-24T08:20:49.576Z,59.46
2019-03-24T08:23:20.314Z,60.48
2019-03-24T08:25:53.592Z,61.71
2019-03-24T08:28:23.332Z,61.51
2019-03-24T08:30:56.101Z,61.17
2019-03-24T08:33:25.799Z,60.25
2019-03-24T08:35:58.174Z,59.33
2019-03-24T08:38:28.693Z,59.55
2019-03-24T08:41:04.009Z,58.46
2019-03-24T08:43:36.973Z,58.81
2019-03-24T08:46:07.600Z,58.02
2019-03-24T08:48:41.072Z,57.21
2019-03-24T08:51:13.388Z,57.24
2019-03-24T08:53:44.562Z,57.31
2019-03-24T08:56:23.246Z,57.74
2019-03-24T08:58:52.925Z,57.90
2019-03-24T09:01:22.561Z,58.83
2019-03-24T09:03:58.377Z,58.26
2019-03-24T09:06:32.036Z,58.92
2019-03-24T09:09:06.589Z,57.91
2019-03-24T09:11:36.196Z,58.57
2019-03-24T09:14:07.213Z,58.49
2019-03-24T09:16:39.103Z,57.49
2019-03-24T09:19:09.057Z,57.05
2019-03-24T09:21:43.444Z,56.82
2019-03-24T09:24:17.853Z,57.34
2019-03-24T09:26:48.688Z,59.27
2019-03-24T09:29:18.529Z,57.61
2019-03-24T09:32:01.195Z,55.64
2019-03-24T09:34:30.783Z,55.96
2019-03-24T09:37:00.490Z,55.58
2019-03-24T09:39:30.177Z,55.80
2019-03-24T09:42:02.809Z,56.97
2019-03-24T09:44:32.482Z,56.63
2019-03-24T09:47:02.121Z,56.48
2019-03-24T09:49:31.717Z,55.89
2019-03-24T09:52:01.335Z,55.56
2019-03-24T09:54:31.031Z,56.46
2019-03-24T09:57:02.800Z,56.61
2019-03-24T09:59:32.377Z,54.79
2019-03-24T10:02:04.763Z,57.16
2019-03-24T10:04:35.976Z,56.19
2019-03-24T10:07:05.614Z,54.31
2019-03-24T10:09:35.222Z,55.34
2019-03-24T10:12:07.321Z,56.99
2019-03-24T10:14:41.888Z,55.41
2019-03-24T10:17:14.597Z,56.24
2019-03-24T10:19:47.370Z,56.16
2019-03-24T10:22:16.996Z,56.82
2019-03-24T10:24:48.567Z,58.14
2019-03-24T10:27:18.151Z,57.34
2019-03-24T10:29:50.565Z,55.97
2019-03-24T10:32:21.766Z,56.40
2019-03-24T10:34:51.356Z,55.93
2019-03-24T10:37:20.931Z,56.38
2019-03-24T10:39:51.006Z,55.16
2019-03-24T10:42:21.893Z,55.15
2019-03-24T10:44:51.559Z,54.97
2019-03-24T10:47:22.963Z,55.65
2019-03-24T10:49:52.622Z,55.77
2019-03-24T10:52:22.250Z,56.74
2019-03-24T10:54:52.243Z,56.03
2019-03-24T10:57:21.873Z,56.27
2019-03-24T10:59:51.453Z,57.02
2019-03-24T11:02:25.637Z,55.71
2019-03-24T11:04:56.816Z,55.62
2019-03-24T11:07:30.953Z,54.54
2019-03-24T11:10:06.768Z,55.41
2019-03-24T11:12:41.843Z,53.85
2019-03-24T11:15:18.035Z,53.69
2019-03-24T11:17:50.112Z,56.85
2019-03-24T11:20:24.003Z,55.71
2019-03-24T11:22:54.817Z,53.30
2019-03-24T11:25:28.581Z,54.91
2019-03-24T11:28:00.126Z,55.45
2019-03-24T11:30:29.752Z,56.11
2019-03-24T11:32:59.526Z,54.09
2019-03-24T11:35:31.912Z,52.72
2019-03-24T11:38:02.994Z,54.28
2019-03-24T11:40:34.390Z,53.31
2019-03-24T11:43:03.996Z,54.12
2019-03-24T11:45:33.664Z,54.12
2019-03-24T11:48:03.494Z,51.94
2019-03-24T11:50:36.626Z,51.31
2019-03-24T11:53:06.241Z,52.11
2019-03-24T11:55:35.922Z,52.08
2019-03-24T11:58:06.975Z,51.27
2019-03-24T12:00:42.787Z,50.90
2019-03-24T12:03:13.815Z,50.50
2019-03-24T12:05:46.015Z,50.37
2019-03-24T12:08:16.137Z,50.05
2019-03-24T12:10:47.855Z,50.00
2019-03-24T12:13:17.428Z,50.15
2019-03-24T12:15:51.434Z,48.87
2019-03-24T12:18:21.116Z,49.28
2019-03-24T12:20:51.038Z,50.52
2019-03-24T12:23:28.036Z,49.76
2019-03-24T12:25:57.591Z,49.98
2019-03-24T12:28:28.012Z,48.26
2019-03-24T12:30:58.499Z,50.44
2019-03-24T12:33:30.890Z,48.99
2019-03-24T12:36:00.599Z,49.43
2019-03-24T12:38:32.988Z,49.02
2019-03-24T12:41:04.053Z,48.05
2019-03-24T12:43:38.954Z,50.35
2019-03-24T12:46:08.603Z,48.51
2019-03-24T12:48:38.599Z,49.30
2019-03-24T12:51:08.245Z,49.34
2019-03-24T12:53:37.879Z,48.03
2019-03-24T12:56:09.351Z,49.10
2019-03-24T12:58:38.966Z,45.69
2019-03-24T13:01:08.585Z,45.43
2019-03-24T13:03:38.711Z,47.40
2019-03-24T13:06:13.098Z,48.56
2019-03-24T13:08:43.192Z,49.92
2019-03-24T13:11:24.725Z,47.68
2019-03-24T13:13:54.352Z,48.94
2019-03-24T13:16:23.989Z,49.50
2019-03-24T13:18:59.245Z,47.36
2019-03-24T13:21:32.053Z,47.82
2019-03-24T13:24:02.870Z,46.95
2019-03-24T13:26:33.925Z,47.89
2019-03-24T13:29:06.654Z,46.38
2019-03-24T13:31:37.145Z,47.33
2019-03-24T13:34:07.964Z,47.46
2019-03-24T13:36:39.403Z,48.91
2019-03-24T13:39:09.381Z,46.66
2019-03-24T13:41:42.434Z,49.02
2019-03-24T13:44:12.043Z,49.50
2019-03-24T13:46:41.711Z,47.81
2019-03-24T13:49:11.590Z,49.13
2019-03-24T13:51:44.011Z,48.42
2019-03-24T13:54:15.419Z,49.93
2019-03-24T13:56:55.953Z,48.77
2019-03-24T13:59:26.721Z,48.17
2019-03-24T14:01:59.064Z,48.73
2019-03-24T14:04:30.277Z,48.21
2019-03-24T14:06:59.901Z,48.29
2019-03-24T14:09:30.997Z,48.42
2019-03-24T14:12:03.554Z,46.89
2019-03-24T14:14:36.402Z,48.26
2019-03-24T14:17:07.301Z,49.41
2019-03-24T14:19:36.920Z,49.53
2019-03-24T14:22:10.465Z,49.72
2019-03-24T14:24:40.260Z,49.78
2019-03-24T14:27:10.010Z,49.33
2019-03-24T14:29:39.826Z,51.00
2019-03-24T14:32:09.553Z,50.42
2019-03-24T14:34:42.165Z,51.65
2019-03-24T14:37:11.943Z,50.21
2019-03-24T14:39:41.499Z,50.57
2019-03-24T14:42:11.469Z,52.76
2019-03-24T14:44:45.671Z,53.28
2019-03-24T14:47:15.405Z,53.19
2019-03-24T14:49:44.986Z,51.67
2019-03-24T14:52:15.803Z,51.98
2019-03-24T14:54:45.746Z,52.13
2019-03-24T14:57:15.794Z,51.22
2019-03-24T14:59:45.518Z,51.21
2019-03-24T15:02:18.572Z,49.79
2019-03-24T15:04:50.622Z,51.33
2019-03-24T15:07:22.021Z,51.83
2019-03-24T15:10:02.811Z,50.05
2019-03-24T15:12:36.702Z,50.16
2019-03-24T15:15:07.435Z,51.30
2019-03-24T15:17:38.406Z,50.72
2019-03-24T15:20:09.943Z,52.58
2019-03-24T15:22:39.558Z,52.68
2019-03-24T15:25:09.186Z,54.21
2019-03-24T15:27:42.052Z,53.25
2019-03-24T15:30:14.259Z,51.83
2019-03-24T15:32:43.900Z,53.11
2019-03-24T15:35:14.636Z,53.59
2019-03-24T15:37:47.961Z,52.22
2019-03-24T15:40:23.175Z,52.08
2019-03-24T15:42:53.902Z,52.51
2019-03-24T15:45:26.628Z,52.54
2019-03-24T15:47:58.146Z,53.44
2019-03-24T15:50:27.994Z,53.33
2019-03-24T15:53:00.781Z,55.56
2019-03-24T15:55:33.364Z,55.74
2019-03-24T15:58:03.388Z,54.92
2019-03-24T16:00:49.592Z,55.06
2019-03-24T16:03:19.498Z,54.15
2019-03-24T16:05:49.105Z,55.34
2019-03-24T16:08:20.550Z,53.64
2019-03-24T16:10:53.190Z,54.33
2019-03-24T16:13:22.849Z,53.80
2019-03-24T16:15:56.856Z,52.38
2019-03-24T16:18:28.480Z,54.03
2019-03-24T16:21:03.087Z,54.06
2019-03-24T16:23:34.005Z,53.75
2019-03-24T16:26:03.676Z,54.79
2019-03-24T16:28:35.696Z,55.63
2019-03-24T16:31:10.065Z,56.91
2019-03-24T16:33:50.793Z,55.92
2019-03-24T16:36:20.870Z,56.12
2019-03-24T16:38:50.461Z,54.89
2019-03-24T16:41:20.249Z,53.18
2019-03-24T16:43:49.841Z,54.48
2019-03-24T16:46:23.417Z,56.80
2019-03-24T16:48:53.596Z,56.05
2019-03-24T16:51:23.252Z,57.46
2019-03-24T16:53:52.844Z,56.66
2019-03-24T16:56:28.285Z,55.69
2019-03-24T16:58:58.971Z,57.11
2019-03-24T17:01:28.605Z,56.60
2019-03-24T17:04:01.072Z,57.08
2019-03-24T17:06:31.942Z,57.09
2019-03-24T17:09:04.622Z,57.44
2019-03-24T17:11:34.276Z,56.53
2019-03-24T17:14:03.975Z,56.24
2019-03-24T17:16:33.642Z,57.90
2019-03-24T17:19:04.893Z,59.40
2019-03-24T17:21:34.488Z,58.28
2019-03-24T17:24:04.106Z,58.36
2019-03-24T17:26:35.904Z,58.81
2019-03-24T17:29:07.110Z,58.95
2019-03-24T17:31:37.635Z,59.21
2019-03-24T17:34:07.350Z,57.47
2019-03-24T17:36:38.752Z,57.95
2019-03-24T17:39:08.877Z,58.52
2019-03-24T17:41:38.516Z,59.65
2019-03-24T17:44:08.327Z,59.78
2019-03-24T17:46:38.172Z,60.48
2019-03-24T17:49:08.052Z,59.54
2019-03-24T17:51:37.661Z,58.30
2019-03-24T17:54:08.191Z,57.24
2019-03-24T17:56:37.846Z,58.88
2019-03-24T17:59:14.452Z,59.38
2019-03-24T18:01:44.433Z,58.94
2019-03-24T18:04:14.043Z,58.01
2019-03-24T18:06:43.654Z,58.21
2019-03-24T18:09:13.253Z,59.00
2019-03-24T18:11:43.182Z,58.97
2019-03-24T18:14:14.927Z,57.14
2019-03-24T18:16:44.386Z,56.40
2019-03-24T18:19:14.008Z,57.72
2019-03-24T18:21:44.770Z,57.82
2019-03-24T18:24:14.407Z,57.47
2019-03-24T18:26:44.056Z,58.64
2019-03-24T18:29:18.289Z,59.41
2019-03-24T18:31:47.973Z,58.97
2019-03-24T18:34:20.528Z,59.63
2019-03-24T18:36:50.138Z,60.30
2019-03-24T18:39:21.803Z,58.77
2019-03-24T18:41:51.443Z,58.10
2019-03-24T18:44:21.092Z,60.40
2019-03-24T18:46:55.555Z,59.98
2019-03-24T18:49:25.397Z,57.95
2019-03-24T18:51:56.746Z,57.12
2019-03-24T18:54:26.383Z,58.59
2019-03-24T18:56:59.418Z,56.84
2019-03-24T18:59:32.020Z,55.71
2019-03-24T19:02:01.754Z,55.82
2019-03-24T19:04:31.642Z,56.36
2019-03-24T19:07:01.444Z,55.62
2019-03-24T19:09:31.138Z,56.79
2019-03-24T19:12:00.755Z,56.84
2019-03-24T19:14:32.965Z,57.99
2019-03-24T19:17:06.732Z,56.49
2019-03-24T19:19:36.467Z,58.07
2019-03-24T19:22:12.234Z,57.94
2019-03-24T19:24:46.962Z,55.68
2019-03-24T19:27:16.673Z,56.25
2019-03-24T19:29:46.441Z,55.69
2019-03-24T19:32:20.957Z,56.75
2019-03-24T19:34:50.599Z,58.09
2019-03-24T19:37:20.297Z,59.58
2019-03-24T19:39:49.893Z,58.74
2019-03-24T19:42:20.610Z,59.18
2019-03-24T19:44:51.540Z,58.69
2019-03-24T19:47:29.684Z,58.20
2019-03-24T19:50:00.809Z,58.21
2019-03-24T19:52:43.950Z,58.59
2019-03-24T19:55:07.002Z,59.51
2019-03-24T19:57:38.781Z,58.36
2019-03-24T20:00:09.327Z,58.18
2019-03-24T20:02:41.774Z,57.91
2019-03-24T20:05:14.571Z,56.06
2019-03-24T20:07:48.050Z,56.73
2019-03-24T20:10:18.222Z,57.19
2019-03-24T20:12:50.879Z,56.77
2019-03-24T20:15:21.705Z,56.54
2019-03-24T20:17:52.505Z,56.21
2019-03-24T20:20:23.362Z,54.37
2019-03-24T20:22:56.890Z,56.71
2019-03-24T20:25:25.500Z,56.25
2019-03-24T20:27:55.118Z,57.72
2019-03-24T20:30:25.128Z,57.05
2019-03-24T20:32:59.122Z,58.89
2019-03-24T20:35:29.850Z,57.13
2019-03-24T20:38:00.970Z,57.96
2019-03-24T20:40:35.834Z,60.02
2019-03-24T20:43:11.019Z,59.78
2019-03-24T20:45:43.475Z,60.11
2019-03-24T20:48:14.953Z,58.36
2019-03-24T20:50:44.609Z,58.11
2019-03-24T20:53:18.354Z,58.04
2019-03-24T20:55:45.695Z,59.03
2019-03-24T20:58:17.823Z,58.03
2019-03-24T21:00:47.600Z,56.54
2019-03-24T21:03:18.749Z,59.69
2019-03-24T21:05:52.462Z,59.95
2019-03-24T21:08:23.164Z,60.71
2019-03-24T21:10:54.069Z,60.77
2019-03-24T21:13:24.806Z,59.36
2019-03-24T21:15:58.507Z,60.15
2019-03-24T21:18:28.155Z,61.46
2019-03-24T21:20:58.435Z,61.32
2019-03-24T21:23:29.709Z,61.49
2019-03-24T21:26:04.484Z,62.15
2019-03-24T21:28:37.154Z,61.94
2019-03-24T21:31:06.924Z,64.44
2019-03-24T21:33:38.390Z,64.94
2019-03-24T21:36:09.200Z,64.74
2019-03-24T21:38:38.836Z,65.68
2019-03-24T21:41:11.412Z,64.86
2019-03-24T21:43:45.993Z,63.42
2019-03-24T21:46:15.595Z,64.34
2019-03-24T21:48:47.713Z,65.70
2019-03-24T21:51:23.132Z,66.08
2019-03-24T21:53:52.777Z,67.23
2019-03-24T21:56:24.375Z,66.12
2019-03-24T21:58:59.490Z,66.12
2019-03-24T22:01:31.056Z,66.19
2019-03-24T22:04:02.411Z,66.74
2019-03-24T22:06:32.150Z,66.75
2019-03-24T22:09:05.466Z,66.45
2019-03-24T22:11:36.141Z,67.49
2019-03-24T22:14:05.775Z,67.46
2019-03-24T22:16:39.901Z,67.77
2019-03-24T22:19:10.560Z,68.27
2019-03-24T22:21:42.406Z,67.97
2019-03-24T22:24:14.554Z,67.83
2019-03-24T22:26:44.163Z,68.34
2019-03-24T22:29:13.890Z,67.45
2019-03-24T22:31:43.597Z,67.98
2019-03-24T22:34:13.331Z,68.19
2019-03-24T22:36:51.792Z,67.99
2019-03-24T22:39:21.657Z,68.27
2019-03-24T22:42:00.401Z,68.04
2019-03-24T22:44:30.037Z,67.70
2019-03-24T22:47:01.182Z,68.07
2019-03-24T22:49:32.129Z,66.91
2019-03-24T22:52:07.400Z,65.99
2019-03-24T22:54:34.817Z,66.35
2019-03-24T22:57:05.923Z,66.42
2019-03-24T22:59:39.384Z,66.56
2019-03-24T23:02:08.962Z,65.89
2019-03-24T23:04:38.622Z,65.59
2019-03-24T23:07:12.241Z,66.58
2019-03-24T23:09:44.407Z,66.49
2019-03-24T23:12:19.745Z,67.04
2019-03-24T23:14:51.207Z,66.19
2019-03-24T23:17:20.827Z,66.01
2019-03-24T23:19:52.015Z,67.82
2019-03-24T23:22:24.018Z,67.12
2019-03-24T23:24:57.817Z,67.09
2019-03-24T23:27:30.463Z,65.53
2019-03-24T23:30:00.327Z,66.02
2019-03-24T23:32:32.253Z,66.12
2019-03-24T23:35:01.840Z,65.26
2019-03-24T23:37:31.435Z,65.85
2019-03-24T23:40:01.333Z,66.00
2019-03-24T23:42:31.773Z,66.07
2019-03-24T23:45:01.574Z,65.48
2019-03-24T23:47:31.128Z,64.90
2019-03-24T23:50:05.282Z,64.11
2019-03-24T23:52:36.912Z,64.55
2019-03-24T23:55:06.827Z,63.55
2019-03-24T23:57:47.763Z,64.10
